sensor_id;sensor_type;location;lat;lon;timestamp;P1;durP1;ratioP1;P2;durP2;ratioP2
6197;SDS011;3132;42.622;23.328;2022-08-21T00:02:22;12.50;;;11.23;;
6197;SDS011;3132;42.622;23.328;2022-08-21T00:04:49;12.60;;;11.27;;
6197;SDS011;3132;42.622;23.328;2022-08-21T00:07:15;12.50;;;11.30;;
6197;SDS011;3132;42.622;23.328;2022-08-21T00:09:41;12.63;;;11.43;;
6197;SDS011;3132;42.622;23.328;2022-08-21T00:12:07;15.90;;;12.27;;
6197;SDS011;3132;42.622;23.328;2022-08-21T00:14:32;16.13;;;12.73;;
6197;SDS011;3132;42.622;23.328;2022-08-21T00:16:59;14.93;;;12.70;;
6197;SDS011;3132;42.622;23.328;2022-08-21T00:19:24;13.60;;;12.03;;
6197;SDS011;3132;42.622;23.328;2022-08-21T00:21:54;14.43;;;11.57;;
6197;SDS011;3132;42.622;23.328;2022-08-21T00:24:20;15.33;;;12.83;;
6197;SDS011;3132;42.622;23.328;2022-08-21T00:26:47;14.23;;;12.87;;
6197;SDS011;3132;42.622;23.328;2022-08-21T00:29:13;16.00;;;14.27;;
6197;SDS011;3132;42.622;23.328;2022-08-21T00:31:39;15.90;;;13.83;;
6197;SDS011;3132;42.622;23.328;2022-08-21T00:34:06;21.50;;;13.80;;
6197;SDS011;3132;42.622;23.328;2022-08-21T00:36:33;17.87;;;13.80;;
6197;SDS011;3132;42.622;23.328;2022-08-21T00:38:59;18.70;;;14.77;;
6197;SDS011;3132;42.622;23.328;2022-08-21T00:41:25;17.10;;;13.80;;
6197;SDS011;3132;42.622;23.328;2022-08-21T00:43:52;17.77;;;13.40;;
6197;SDS011;3132;42.622;23.328;2022-08-21T00:46:18;15.23;;;13.17;;
6197;SDS011;3132;42.622;23.328;2022-08-21T00:48:43;16.67;;;12.30;;
6197;SDS011;3132;42.622;23.328;2022-08-21T00:51:17;13.57;;;12.07;;
6197;SDS011;3132;42.622;23.328;2022-08-21T00:53:59;12.57;;;11.40;;
6197;SDS011;3132;42.622;23.328;2022-08-21T00:56:26;12.47;;;10.97;;
6197;SDS011;3132;42.622;23.328;2022-08-21T00:58:52;18.30;;;11.73;;
6197;SDS011;3132;42.622;23.328;2022-08-21T01:01:20;13.43;;;12.07;;
6197;SDS011;3132;42.622;23.328;2022-08-21T01:03:46;16.13;;;12.37;;
6197;SDS011;3132;42.622;23.328;2022-08-21T01:06:12;18.73;;;13.90;;
6197;SDS011;3132;42.622;23.328;2022-08-21T01:08:38;13.57;;;12.00;;
6197;SDS011;3132;42.622;23.328;2022-08-21T01:11:03;13.20;;;11.57;;
6197;SDS011;3132;42.622;23.328;2022-08-21T01:13:30;12.73;;;11.63;;
6197;SDS011;3132;42.622;23.328;2022-08-21T01:15:59;10.70;;;9.83;;
6197;SDS011;3132;42.622;23.328;2022-08-21T01:18:28;11.47;;;10.57;;
6197;SDS011;3132;42.622;23.328;2022-08-21T01:23:22;11.47;;;10.50;;
6197;SDS011;3132;42.622;23.328;2022-08-21T01:25:47;10.70;;;9.80;;
6197;SDS011;3132;42.622;23.328;2022-08-21T01:28:13;9.80;;;9.17;;
6197;SDS011;3132;42.622;23.328;2022-08-21T01:30:39;10.27;;;9.37;;
6197;SDS011;3132;42.622;23.328;2022-08-21T01:33:08;11.40;;;10.37;;
6197;SDS011;3132;42.622;23.328;2022-08-21T01:35:33;11.30;;;10.27;;
6197;SDS011;3132;42.622;23.328;2022-08-21T01:37:59;10.73;;;9.87;;
6197;SDS011;3132;42.622;23.328;2022-08-21T01:40:25;10.37;;;9.47;;
6197;SDS011;3132;42.622;23.328;2022-08-21T01:42:50;11.73;;;9.40;;
6197;SDS011;3132;42.622;23.328;2022-08-21T01:45:16;12.03;;;9.80;;
6197;SDS011;3132;42.622;23.328;2022-08-21T01:47:42;10.23;;;9.20;;
6197;SDS011;3132;42.622;23.328;2022-08-21T01:50:09;10.23;;;9.37;;
6197;SDS011;3132;42.622;23.328;2022-08-21T01:52:37;12.93;;;11.10;;
6197;SDS011;3132;42.622;23.328;2022-08-21T01:55:04;9.97;;;9.13;;
6197;SDS011;3132;42.622;23.328;2022-08-21T01:57:30;10.77;;;9.97;;
6197;SDS011;3132;42.622;23.328;2022-08-21T01:59:57;10.87;;;9.57;;
6197;SDS011;3132;42.622;23.328;2022-08-21T02:02:23;10.20;;;9.23;;
6197;SDS011;3132;42.622;23.328;2022-08-21T02:04:48;10.13;;;9.03;;
6197;SDS011;3132;42.622;23.328;2022-08-21T02:07:14;9.90;;;8.97;;
6197;SDS011;3132;42.622;23.328;2022-08-21T02:09:40;9.13;;;8.53;;
6197;SDS011;3132;42.622;23.328;2022-08-21T02:12:08;9.97;;;9.33;;
6197;SDS011;3132;42.622;23.328;2022-08-21T02:14:34;10.13;;;9.43;;
6197;SDS011;3132;42.622;23.328;2022-08-21T02:17:00;9.60;;;8.90;;
6197;SDS011;3132;42.622;23.328;2022-08-21T02:19:26;10.00;;;9.13;;
6197;SDS011;3132;42.622;23.328;2022-08-21T02:21:51;9.77;;;8.97;;
6197;SDS011;3132;42.622;23.328;2022-08-21T02:24:16;9.90;;;9.20;;
6197;SDS011;3132;42.622;23.328;2022-08-21T02:26:42;11.07;;;9.13;;
6197;SDS011;3132;42.622;23.328;2022-08-21T02:29:07;10.40;;;9.60;;
6197;SDS011;3132;42.622;23.328;2022-08-21T02:31:33;12.27;;;9.87;;
6197;SDS011;3132;42.622;23.328;2022-08-21T02:33:58;10.43;;;9.73;;
6197;SDS011;3132;42.622;23.328;2022-08-21T02:36:24;9.40;;;8.83;;
6197;SDS011;3132;42.622;23.328;2022-08-21T02:38:50;10.27;;;9.27;;
6197;SDS011;3132;42.622;23.328;2022-08-21T02:41:16;10.57;;;8.63;;
6197;SDS011;3132;42.622;23.328;2022-08-21T02:43:43;9.50;;;8.93;;
6197;SDS011;3132;42.622;23.328;2022-08-21T02:46:10;9.93;;;9.10;;
6197;SDS011;3132;42.622;23.328;2022-08-21T02:48:37;9.43;;;8.77;;
6197;SDS011;3132;42.622;23.328;2022-08-21T02:51:05;8.83;;;8.23;;
6197;SDS011;3132;42.622;23.328;2022-08-21T02:53:32;11.90;;;10.07;;
6197;SDS011;3132;42.622;23.328;2022-08-21T02:56:00;10.13;;;9.17;;
6197;SDS011;3132;42.622;23.328;2022-08-21T02:58:30;9.87;;;9.27;;
6197;SDS011;3132;42.622;23.328;2022-08-21T03:00:58;9.43;;;8.67;;
6197;SDS011;3132;42.622;23.328;2022-08-21T03:03:24;9.60;;;8.90;;
6197;SDS011;3132;42.622;23.328;2022-08-21T03:05:51;9.30;;;8.70;;
6197;SDS011;3132;42.622;23.328;2022-08-21T03:08:17;9.70;;;9.00;;
6197;SDS011;3132;42.622;23.328;2022-08-21T03:10:46;9.40;;;8.60;;
6197;SDS011;3132;42.622;23.328;2022-08-21T03:13:12;10.10;;;9.20;;
6197;SDS011;3132;42.622;23.328;2022-08-21T03:15:38;9.77;;;9.00;;
6197;SDS011;3132;42.622;23.328;2022-08-21T03:18:05;9.67;;;9.07;;
6197;SDS011;3132;42.622;23.328;2022-08-21T03:20:32;10.37;;;9.50;;
6197;SDS011;3132;42.622;23.328;2022-08-21T03:22:58;9.37;;;8.70;;
6197;SDS011;3132;42.622;23.328;2022-08-21T03:25:25;9.87;;;9.03;;
6197;SDS011;3132;42.622;23.328;2022-08-21T03:27:51;9.90;;;9.13;;
6197;SDS011;3132;42.622;23.328;2022-08-21T03:30:18;11.20;;;9.13;;
6197;SDS011;3132;42.622;23.328;2022-08-21T03:32:45;9.93;;;9.23;;
6197;SDS011;3132;42.622;23.328;2022-08-21T03:35:11;9.97;;;9.03;;
6197;SDS011;3132;42.622;23.328;2022-08-21T03:37:38;8.67;;;8.03;;
6197;SDS011;3132;42.622;23.328;2022-08-21T03:40:04;8.63;;;8.13;;
6197;SDS011;3132;42.622;23.328;2022-08-21T03:42:32;11.47;;;10.13;;
6197;SDS011;3132;42.622;23.328;2022-08-21T03:44:57;9.43;;;8.83;;
6197;SDS011;3132;42.622;23.328;2022-08-21T03:47:23;9.37;;;8.63;;
6197;SDS011;3132;42.622;23.328;2022-08-21T03:49:49;10.43;;;9.53;;
6197;SDS011;3132;42.622;23.328;2022-08-21T03:52:14;8.90;;;8.30;;
6197;SDS011;3132;42.622;23.328;2022-08-21T03:54:40;10.20;;;9.30;;
6197;SDS011;3132;42.622;23.328;2022-08-21T03:57:07;8.90;;;8.17;;
6197;SDS011;3132;42.622;23.328;2022-08-21T03:59:33;10.27;;;9.33;;
6197;SDS011;3132;42.622;23.328;2022-08-21T04:02:00;9.27;;;8.57;;
6197;SDS011;3132;42.622;23.328;2022-08-21T04:04:27;10.17;;;9.03;;
6197;SDS011;3132;42.622;23.328;2022-08-21T04:06:53;9.23;;;8.50;;
6197;SDS011;3132;42.622;23.328;2022-08-21T04:09:20;10.77;;;9.73;;
6197;SDS011;3132;42.622;23.328;2022-08-21T04:11:45;8.67;;;8.17;;
6197;SDS011;3132;42.622;23.328;2022-08-21T04:14:12;13.30;;;9.10;;
6197;SDS011;3132;42.622;23.328;2022-08-21T04:16:37;11.53;;;8.97;;
6197;SDS011;3132;42.622;23.328;2022-08-21T04:19:03;9.43;;;8.70;;
6197;SDS011;3132;42.622;23.328;2022-08-21T04:21:29;10.63;;;9.60;;
6197;SDS011;3132;42.622;23.328;2022-08-21T04:23:55;9.17;;;8.67;;
6197;SDS011;3132;42.622;23.328;2022-08-21T04:26:20;10.03;;;9.03;;
6197;SDS011;3132;42.622;23.328;2022-08-21T04:28:46;10.03;;;8.67;;
6197;SDS011;3132;42.622;23.328;2022-08-21T04:31:11;9.93;;;9.07;;
6197;SDS011;3132;42.622;23.328;2022-08-21T04:33:37;9.37;;;8.73;;
6197;SDS011;3132;42.622;23.328;2022-08-21T04:36:02;10.00;;;9.00;;
6197;SDS011;3132;42.622;23.328;2022-08-21T04:38:29;9.53;;;8.83;;
6197;SDS011;3132;42.622;23.328;2022-08-21T04:40:56;9.70;;;8.90;;
6197;SDS011;3132;42.622;23.328;2022-08-21T04:43:22;10.70;;;9.80;;
6197;SDS011;3132;42.622;23.328;2022-08-21T04:45:48;8.70;;;8.00;;
6197;SDS011;3132;42.622;23.328;2022-08-21T04:48:16;10.20;;;9.30;;
6197;SDS011;3132;42.622;23.328;2022-08-21T04:53:34;10.60;;;9.63;;
6197;SDS011;3132;42.622;23.328;2022-08-21T04:56:23;10.97;;;9.87;;
6197;SDS011;3132;42.622;23.328;2022-08-21T04:58:55;10.87;;;9.80;;
6197;SDS011;3132;42.622;23.328;2022-08-21T05:01:23;9.53;;;8.93;;
6197;SDS011;3132;42.622;23.328;2022-08-21T05:03:53;10.70;;;9.57;;
6197;SDS011;3132;42.622;23.328;2022-08-21T05:06:21;10.37;;;9.67;;
6197;SDS011;3132;42.622;23.328;2022-08-21T05:08:49;10.20;;;9.40;;
6197;SDS011;3132;42.622;23.328;2022-08-21T05:11:17;10.07;;;9.27;;
6197;SDS011;3132;42.622;23.328;2022-08-21T05:13:44;13.93;;;9.43;;
6197;SDS011;3132;42.622;23.328;2022-08-21T05:16:10;10.27;;;9.27;;
6197;SDS011;3132;42.622;23.328;2022-08-21T05:18:35;11.00;;;9.47;;
6197;SDS011;3132;42.622;23.328;2022-08-21T05:21:01;10.83;;;9.80;;
6197;SDS011;3132;42.622;23.328;2022-08-21T05:23:26;11.73;;;9.77;;
6197;SDS011;3132;42.622;23.328;2022-08-21T05:25:52;12.03;;;10.10;;
6197;SDS011;3132;42.622;23.328;2022-08-21T05:28:18;10.63;;;9.73;;
6197;SDS011;3132;42.622;23.328;2022-08-21T05:30:43;10.27;;;9.40;;
6197;SDS011;3132;42.622;23.328;2022-08-21T05:33:09;10.87;;;10.10;;
6197;SDS011;3132;42.622;23.328;2022-08-21T05:35:35;13.03;;;11.70;;
6197;SDS011;3132;42.622;23.328;2022-08-21T05:38:01;11.13;;;10.23;;
6197;SDS011;3132;42.622;23.328;2022-08-21T05:40:28;12.20;;;11.10;;
6197;SDS011;3132;42.622;23.328;2022-08-21T05:42:53;11.60;;;10.50;;
6197;SDS011;3132;42.622;23.328;2022-08-21T05:45:20;12.27;;;10.63;;
6197;SDS011;3132;42.622;23.328;2022-08-21T05:47:51;10.83;;;9.93;;
6197;SDS011;3132;42.622;23.328;2022-08-21T05:50:16;10.23;;;9.53;;
6197;SDS011;3132;42.622;23.328;2022-08-21T05:52:42;11.67;;;10.70;;
6197;SDS011;3132;42.622;23.328;2022-08-21T05:55:07;10.67;;;9.87;;
6197;SDS011;3132;42.622;23.328;2022-08-21T05:57:33;11.60;;;10.50;;
6197;SDS011;3132;42.622;23.328;2022-08-21T05:59:58;10.40;;;9.50;;
6197;SDS011;3132;42.622;23.328;2022-08-21T06:02:23;10.50;;;9.50;;
6197;SDS011;3132;42.622;23.328;2022-08-21T06:04:49;9.98;;;9.05;;
6197;SDS011;3132;42.622;23.328;2022-08-21T06:07:15;10.65;;;9.60;;
6197;SDS011;3132;42.622;23.328;2022-08-21T06:09:40;11.15;;;9.20;;
6197;SDS011;3132;42.622;23.328;2022-08-21T06:12:06;10.15;;;9.35;;
6197;SDS011;3132;42.622;23.328;2022-08-21T06:14:34;10.00;;;9.00;;
6197;SDS011;3132;42.622;23.328;2022-08-21T06:17:06;9.80;;;9.10;;
6197;SDS011;3132;42.622;23.328;2022-08-21T06:19:35;10.88;;;9.98;;
6197;SDS011;3132;42.622;23.328;2022-08-21T06:22:01;9.70;;;9.00;;
6197;SDS011;3132;42.622;23.328;2022-08-21T06:24:26;11.85;;;10.63;;
6197;SDS011;3132;42.622;23.328;2022-08-21T06:26:52;10.15;;;9.45;;
6197;SDS011;3132;42.622;23.328;2022-08-21T06:29:19;10.95;;;9.98;;
6197;SDS011;3132;42.622;23.328;2022-08-21T06:31:45;11.63;;;10.63;;
6197;SDS011;3132;42.622;23.328;2022-08-21T06:34:12;11.30;;;9.65;;
6197;SDS011;3132;42.622;23.328;2022-08-21T06:36:38;11.82;;;10.75;;
6197;SDS011;3132;42.622;23.328;2022-08-21T06:39:03;11.07;;;10.00;;
6197;SDS011;3132;42.622;23.328;2022-08-21T06:41:29;11.05;;;9.98;;
6197;SDS011;3132;42.622;23.328;2022-08-21T06:43:55;10.55;;;9.65;;
6197;SDS011;3132;42.622;23.328;2022-08-21T06:46:22;12.45;;;9.65;;
6197;SDS011;3132;42.622;23.328;2022-08-21T06:48:48;10.48;;;9.35;;
6197;SDS011;3132;42.622;23.328;2022-08-21T06:51:14;10.93;;;9.82;;
6197;SDS011;3132;42.622;23.328;2022-08-21T06:53:40;10.70;;;9.80;;
6197;SDS011;3132;42.622;23.328;2022-08-21T06:56:05;11.05;;;9.95;;
6197;SDS011;3132;42.622;23.328;2022-08-21T06:58:30;10.98;;;10.07;;
6197;SDS011;3132;42.622;23.328;2022-08-21T07:00:56;10.57;;;9.77;;
6197;SDS011;3132;42.622;23.328;2022-08-21T07:03:28;11.00;;;9.88;;
6197;SDS011;3132;42.622;23.328;2022-08-21T07:05:56;10.75;;;10.05;;
6197;SDS011;3132;42.622;23.328;2022-08-21T07:08:23;11.00;;;10.00;;
6197;SDS011;3132;42.622;23.328;2022-08-21T07:10:50;10.23;;;9.43;;
6197;SDS011;3132;42.622;23.328;2022-08-21T07:13:17;10.90;;;10.00;;
6197;SDS011;3132;42.622;23.328;2022-08-21T07:15:43;13.57;;;10.48;;
6197;SDS011;3132;42.622;23.328;2022-08-21T07:18:09;10.65;;;9.70;;
6197;SDS011;3132;42.622;23.328;2022-08-21T07:20:36;10.75;;;9.68;;
6197;SDS011;3132;42.622;23.328;2022-08-21T07:23:03;13.38;;;10.55;;
6197;SDS011;3132;42.622;23.328;2022-08-21T07:25:31;11.82;;;10.75;;
6197;SDS011;3132;42.622;23.328;2022-08-21T07:27:56;11.43;;;9.68;;
6197;SDS011;3132;42.622;23.328;2022-08-21T07:30:22;12.18;;;11.18;;
6197;SDS011;3132;42.622;23.328;2022-08-21T07:32:48;10.98;;;9.98;;
6197;SDS011;3132;42.622;23.328;2022-08-21T07:35:14;10.15;;;9.35;;
6197;SDS011;3132;42.622;23.328;2022-08-21T07:37:40;10.77;;;9.80;;
6197;SDS011;3132;42.622;23.328;2022-08-21T07:40:05;12.55;;;10.40;;
6197;SDS011;3132;42.622;23.328;2022-08-21T07:42:32;11.57;;;10.68;;
6197;SDS011;3132;42.622;23.328;2022-08-21T07:44:57;11.38;;;10.27;;
6197;SDS011;3132;42.622;23.328;2022-08-21T07:47:22;11.70;;;10.60;;
6197;SDS011;3132;42.622;23.328;2022-08-21T07:49:48;12.00;;;11.00;;
6197;SDS011;3132;42.622;23.328;2022-08-21T07:52:13;11.43;;;10.30;;
6197;SDS011;3132;42.622;23.328;2022-08-21T07:54:39;11.60;;;10.65;;
6197;SDS011;3132;42.622;23.328;2022-08-21T07:57:04;10.98;;;9.98;;
6197;SDS011;3132;42.622;23.328;2022-08-21T07:59:29;12.18;;;11.13;;
6197;SDS011;3132;42.622;23.328;2022-08-21T08:01:55;10.77;;;9.77;;
6197;SDS011;3132;42.622;23.328;2022-08-21T08:04:21;14.68;;;11.00;;
6197;SDS011;3132;42.622;23.328;2022-08-21T08:06:47;10.65;;;9.57;;
6197;SDS011;3132;42.622;23.328;2022-08-21T08:09:12;11.75;;;10.50;;
6197;SDS011;3132;42.622;23.328;2022-08-21T08:11:39;10.52;;;9.70;;
6197;SDS011;3132;42.622;23.328;2022-08-21T08:14:08;10.00;;;9.07;;
6197;SDS011;3132;42.622;23.328;2022-08-21T08:16:34;11.50;;;10.57;;
6197;SDS011;3132;42.622;23.328;2022-08-21T08:19:00;12.00;;;10.27;;
6197;SDS011;3132;42.622;23.328;2022-08-21T08:21:25;10.82;;;9.88;;
6197;SDS011;3132;42.622;23.328;2022-08-21T08:23:51;11.80;;;10.18;;
6197;SDS011;3132;42.622;23.328;2022-08-21T08:26:17;10.30;;;9.30;;
6197;SDS011;3132;42.622;23.328;2022-08-21T08:28:42;10.35;;;9.63;;
6197;SDS011;3132;42.622;23.328;2022-08-21T08:31:08;11.35;;;10.20;;
6197;SDS011;3132;42.622;23.328;2022-08-21T08:33:33;12.05;;;10.93;;
6197;SDS011;3132;42.622;23.328;2022-08-21T08:35:59;12.95;;;10.88;;
6197;SDS011;3132;42.622;23.328;2022-08-21T08:38:24;12.07;;;10.85;;
6197;SDS011;3132;42.622;23.328;2022-08-21T08:43:21;11.45;;;10.27;;
6197;SDS011;3132;42.622;23.328;2022-08-21T08:45:51;10.65;;;9.85;;
6197;SDS011;3132;42.622;23.328;2022-08-21T08:51:32;9.73;;;8.93;;
6197;SDS011;3132;42.622;23.328;2022-08-21T08:54:00;10.27;;;9.13;;
6197;SDS011;3132;42.622;23.328;2022-08-21T08:56:31;11.27;;;10.32;;
6197;SDS011;3132;42.622;23.328;2022-08-21T08:59:09;9.93;;;9.07;;
6197;SDS011;3132;42.622;23.328;2022-08-21T09:01:46;11.75;;;10.55;;
6197;SDS011;3132;42.622;23.328;2022-08-21T09:04:13;10.68;;;9.80;;
6197;SDS011;3132;42.622;23.328;2022-08-21T09:07:22;11.50;;;10.18;;
6197;SDS011;3132;42.622;23.328;2022-08-21T09:10:17;10.65;;;9.52;;
6197;SDS011;3132;42.622;23.328;2022-08-21T09:16:05;10.10;;;9.38;;
6197;SDS011;3132;42.622;23.328;2022-08-21T09:26:44;9.45;;;8.73;;
6197;SDS011;3132;42.622;23.328;2022-08-21T09:29:19;9.63;;;9.02;;
6197;SDS011;3132;42.622;23.328;2022-08-21T09:31:48;9.90;;;9.10;;
6197;SDS011;3132;42.622;23.328;2022-08-21T09:34:23;10.73;;;9.40;;
6197;SDS011;3132;42.622;23.328;2022-08-21T09:36:50;10.77;;;9.27;;
6197;SDS011;3132;42.622;23.328;2022-08-21T09:39:23;9.77;;;9.07;;
6197;SDS011;3132;42.622;23.328;2022-08-21T09:41:57;9.30;;;8.63;;
6197;SDS011;3132;42.622;23.328;2022-08-21T09:44:28;10.65;;;9.63;;
6197;SDS011;3132;42.622;23.328;2022-08-21T09:46:58;10.90;;;9.88;;
6197;SDS011;3132;42.622;23.328;2022-08-21T09:49:31;10.20;;;9.07;;
6197;SDS011;3132;42.622;23.328;2022-08-21T09:51:59;10.98;;;10.15;;
6197;SDS011;3132;42.622;23.328;2022-08-21T09:54:37;11.93;;;10.38;;
6197;SDS011;3132;42.622;23.328;2022-08-21T09:59:51;11.15;;;9.95;;
6197;SDS011;3132;42.622;23.328;2022-08-21T10:04:52;12.18;;;10.98;;
6197;SDS011;3132;42.622;23.328;2022-08-21T10:07:23;11.85;;;10.52;;
6197;SDS011;3132;42.622;23.328;2022-08-21T10:10:01;11.18;;;10.38;;
6197;SDS011;3132;42.622;23.328;2022-08-21T10:12:42;11.00;;;10.02;;
6197;SDS011;3132;42.622;23.328;2022-08-21T10:15:15;11.13;;;10.10;;
6197;SDS011;3132;42.622;23.328;2022-08-21T10:18:10;10.55;;;9.70;;
6197;SDS011;3132;42.622;23.328;2022-08-21T10:20:59;11.15;;;9.57;;
6197;SDS011;3132;42.622;23.328;2022-08-21T10:23:48;11.43;;;10.32;;
6197;SDS011;3132;42.622;23.328;2022-08-21T10:40:34;11.18;;;10.07;;
6197;SDS011;3132;42.622;23.328;2022-08-21T10:45:42;10.93;;;10.05;;
6197;SDS011;3132;42.622;23.328;2022-08-21T10:48:14;10.85;;;9.80;;
6197;SDS011;3132;42.622;23.328;2022-08-21T10:50:57;10.15;;;9.40;;
6197;SDS011;3132;42.622;23.328;2022-08-21T10:56:43;10.10;;;9.20;;
6197;SDS011;3132;42.622;23.328;2022-08-21T10:59:33;10.57;;;9.75;;
6197;SDS011;3132;42.622;23.328;2022-08-21T11:04:58;10.70;;;10.00;;
6197;SDS011;3132;42.622;23.328;2022-08-21T11:07:30;10.25;;;9.45;;
6197;SDS011;3132;42.622;23.328;2022-08-21T11:10:06;10.85;;;9.85;;
6197;SDS011;3132;42.622;23.328;2022-08-21T11:17:57;11.70;;;9.93;;
6197;SDS011;3132;42.622;23.328;2022-08-21T11:20:40;11.82;;;10.77;;
6197;SDS011;3132;42.622;23.328;2022-08-21T11:23:17;10.55;;;9.50;;
6197;SDS011;3132;42.622;23.328;2022-08-21T11:25:49;11.18;;;10.27;;
6197;SDS011;3132;42.622;23.328;2022-08-21T11:28:30;11.05;;;10.15;;
6197;SDS011;3132;42.622;23.328;2022-08-21T11:33:47;10.93;;;10.05;;
6197;SDS011;3132;42.622;23.328;2022-08-21T11:39:30;10.43;;;9.50;;
6197;SDS011;3132;42.622;23.328;2022-08-21T11:47:23;10.73;;;9.85;;
6197;SDS011;3132;42.622;23.328;2022-08-21T11:50:17;10.30;;;8.85;;
6197;SDS011;3132;42.622;23.328;2022-08-21T11:53:08;9.23;;;8.40;;
6197;SDS011;3132;42.622;23.328;2022-08-21T11:55:48;9.35;;;8.65;;
6197;SDS011;3132;42.622;23.328;2022-08-21T11:58:32;9.88;;;8.98;;
6197;SDS011;3132;42.622;23.328;2022-08-21T12:01:27;10.02;;;9.13;;
6197;SDS011;3132;42.622;23.328;2022-08-21T12:06:35;9.85;;;9.15;;
6197;SDS011;3132;42.622;23.328;2022-08-21T12:09:04;10.13;;;9.30;;
6197;SDS011;3132;42.622;23.328;2022-08-21T12:11:31;10.15;;;9.35;;
6197;SDS011;3132;42.622;23.328;2022-08-21T12:13:58;10.10;;;9.10;;
6197;SDS011;3132;42.622;23.328;2022-08-21T12:16:35;9.93;;;9.13;;
6197;SDS011;3132;42.622;23.328;2022-08-21T12:19:07;10.40;;;9.35;;
6197;SDS011;3132;42.622;23.328;2022-08-21T12:21:33;10.10;;;9.20;;
6197;SDS011;3132;42.622;23.328;2022-08-21T12:26:53;10.18;;;9.10;;
6197;SDS011;3132;42.622;23.328;2022-08-21T12:29:24;11.48;;;9.90;;
6197;SDS011;3132;42.622;23.328;2022-08-21T12:31:54;11.35;;;10.40;;
6197;SDS011;3132;42.622;23.328;2022-08-21T12:34:20;10.30;;;9.38;;
6197;SDS011;3132;42.622;23.328;2022-08-21T12:36:57;10.73;;;9.65;;
6197;SDS011;3132;42.622;23.328;2022-08-21T12:39:27;11.63;;;10.45;;
6197;SDS011;3132;42.622;23.328;2022-08-21T12:42:00;11.43;;;10.52;;
6197;SDS011;3132;42.622;23.328;2022-08-21T12:44:40;10.30;;;9.48;;
6197;SDS011;3132;42.622;23.328;2022-08-21T12:50:06;9.68;;;8.98;;
6197;SDS011;3132;42.622;23.328;2022-08-21T12:52:38;10.30;;;9.40;;
6197;SDS011;3132;42.622;23.328;2022-08-21T12:55:07;10.45;;;9.52;;
6197;SDS011;3132;42.622;23.328;2022-08-21T12:57:39;10.85;;;9.93;;
6197;SDS011;3132;42.622;23.328;2022-08-21T13:00:06;10.68;;;9.48;;
6197;SDS011;3132;42.622;23.328;2022-08-21T13:02:37;9.18;;;8.40;;
6197;SDS011;3132;42.622;23.328;2022-08-21T13:05:12;13.20;;;9.10;;
6197;SDS011;3132;42.622;23.328;2022-08-21T13:07:44;9.85;;;8.90;;
6197;SDS011;3132;42.622;23.328;2022-08-21T13:10:27;9.63;;;8.93;;
6197;SDS011;3132;42.622;23.328;2022-08-21T13:12:57;11.63;;;9.35;;
6197;SDS011;3132;42.622;23.328;2022-08-21T13:15:58;9.40;;;8.75;;
6197;SDS011;3132;42.622;23.328;2022-08-21T13:18:22;9.35;;;8.63;;
6197;SDS011;3132;42.622;23.328;2022-08-21T13:20:49;9.70;;;8.98;;
6197;SDS011;3132;42.622;23.328;2022-08-21T13:25:50;9.93;;;9.00;;
6197;SDS011;3132;42.622;23.328;2022-08-21T13:28:15;9.15;;;8.55;;
6197;SDS011;3132;42.622;23.328;2022-08-21T13:30:42;9.13;;;8.40;;
6197;SDS011;3132;42.622;23.328;2022-08-21T13:33:13;9.95;;;9.18;;
6197;SDS011;3132;42.622;23.328;2022-08-21T13:38:21;9.18;;;8.60;;
6197;SDS011;3132;42.622;23.328;2022-08-21T13:40:53;8.95;;;8.18;;
6197;SDS011;3132;42.622;23.328;2022-08-21T13:43:25;10.68;;;9.57;;
6197;SDS011;3132;42.622;23.328;2022-08-21T13:45:54;9.25;;;8.50;;
6197;SDS011;3132;42.622;23.328;2022-08-21T13:48:21;9.38;;;8.77;;
6197;SDS011;3132;42.622;23.328;2022-08-21T13:50:49;9.88;;;9.05;;
6197;SDS011;3132;42.622;23.328;2022-08-21T13:53:49;10.75;;;9.07;;
6197;SDS011;3132;42.622;23.328;2022-08-21T13:56:09;10.07;;;9.15;;
6197;SDS011;3132;42.622;23.328;2022-08-21T13:58:58;10.00;;;9.20;;
6197;SDS011;3132;42.622;23.328;2022-08-21T14:03:56;10.25;;;9.18;;
6197;SDS011;3132;42.622;23.328;2022-08-21T14:06:27;10.73;;;9.95;;
6197;SDS011;3132;42.622;23.328;2022-08-21T14:08:59;10.32;;;9.63;;
6197;SDS011;3132;42.622;23.328;2022-08-21T14:11:27;10.27;;;9.48;;
6197;SDS011;3132;42.622;23.328;2022-08-21T14:14:00;9.88;;;9.07;;
6197;SDS011;3132;42.622;23.328;2022-08-21T14:16:29;10.38;;;9.40;;
6197;SDS011;3132;42.622;23.328;2022-08-21T14:19:17;10.60;;;9.77;;
6197;SDS011;3132;42.622;23.328;2022-08-21T14:21:45;10.27;;;9.27;;
6197;SDS011;3132;42.622;23.328;2022-08-21T14:24:29;10.23;;;9.32;;
6197;SDS011;3132;42.622;23.328;2022-08-21T14:26:56;10.35;;;9.63;;
6197;SDS011;3132;42.622;23.328;2022-08-21T14:29:24;12.45;;;11.35;;
6197;SDS011;3132;42.622;23.328;2022-08-21T14:31:53;10.25;;;9.35;;
6197;SDS011;3132;42.622;23.328;2022-08-21T14:34:22;10.27;;;9.48;;
6197;SDS011;3132;42.622;23.328;2022-08-21T14:36:51;11.25;;;10.35;;
6197;SDS011;3132;42.622;23.328;2022-08-21T14:39:16;10.40;;;9.60;;
6197;SDS011;3132;42.622;23.328;2022-08-21T14:41:42;9.80;;;9.10;;
6197;SDS011;3132;42.622;23.328;2022-08-21T14:44:10;10.85;;;9.98;;
6197;SDS011;3132;42.622;23.328;2022-08-21T14:46:36;10.48;;;9.68;;
6197;SDS011;3132;42.622;23.328;2022-08-21T14:49:02;17.23;;;15.57;;
6197;SDS011;3132;42.622;23.328;2022-08-21T14:51:28;17.27;;;15.82;;
6197;SDS011;3132;42.622;23.328;2022-08-21T14:53:53;14.57;;;13.40;;
6197;SDS011;3132;42.622;23.328;2022-08-21T14:56:19;14.25;;;13.07;;
6197;SDS011;3132;42.622;23.328;2022-08-21T14:58:46;14.50;;;13.00;;
6197;SDS011;3132;42.622;23.328;2022-08-21T15:01:14;11.85;;;10.88;;
6197;SDS011;3132;42.622;23.328;2022-08-21T15:03:42;14.35;;;9.35;;
6197;SDS011;3132;42.622;23.328;2022-08-21T15:06:07;11.45;;;10.23;;
6197;SDS011;3132;42.622;23.328;2022-08-21T15:08:33;10.90;;;10.10;;
6197;SDS011;3132;42.622;23.328;2022-08-21T15:11:00;12.10;;;10.73;;
6197;SDS011;3132;42.622;23.328;2022-08-21T15:13:26;11.55;;;10.55;;
6197;SDS011;3132;42.622;23.328;2022-08-21T15:15:53;10.73;;;9.93;;
6197;SDS011;3132;42.622;23.328;2022-08-21T15:18:19;11.02;;;9.93;;
6197;SDS011;3132;42.622;23.328;2022-08-21T15:20:45;10.57;;;9.68;;
6197;SDS011;3132;42.622;23.328;2022-08-21T15:23:11;11.20;;;10.20;;
6197;SDS011;3132;42.622;23.328;2022-08-21T15:25:40;11.77;;;10.60;;
6197;SDS011;3132;42.622;23.328;2022-08-21T15:28:07;11.43;;;10.43;;
6197;SDS011;3132;42.622;23.328;2022-08-21T15:30:33;11.90;;;10.80;;
6197;SDS011;3132;42.622;23.328;2022-08-21T15:32:59;11.05;;;10.18;;
6197;SDS011;3132;42.622;23.328;2022-08-21T15:35:24;10.68;;;9.82;;
6197;SDS011;3132;42.622;23.328;2022-08-21T15:37:50;11.15;;;10.00;;
6197;SDS011;3132;42.622;23.328;2022-08-21T15:40:15;10.27;;;9.27;;
6197;SDS011;3132;42.622;23.328;2022-08-21T15:42:41;10.85;;;9.88;;
6197;SDS011;3132;42.622;23.328;2022-08-21T15:45:08;11.68;;;10.63;;
6197;SDS011;3132;42.622;23.328;2022-08-21T15:47:36;11.07;;;9.90;;
6197;SDS011;3132;42.622;23.328;2022-08-21T15:50:03;11.35;;;10.45;;
6197;SDS011;3132;42.622;23.328;2022-08-21T15:52:32;15.20;;;10.30;;
6197;SDS011;3132;42.622;23.328;2022-08-21T15:54:57;10.82;;;9.93;;
6197;SDS011;3132;42.622;23.328;2022-08-21T15:57:23;11.23;;;10.23;;
6197;SDS011;3132;42.622;23.328;2022-08-21T15:59:53;10.82;;;9.90;;
6197;SDS011;3132;42.622;23.328;2022-08-21T16:02:25;11.35;;;10.15;;
6197;SDS011;3132;42.622;23.328;2022-08-21T16:04:54;10.68;;;9.82;;
6197;SDS011;3132;42.622;23.328;2022-08-21T16:07:19;11.15;;;9.98;;
6197;SDS011;3132;42.622;23.328;2022-08-21T16:09:45;12.05;;;10.60;;
6197;SDS011;3132;42.622;23.328;2022-08-21T16:12:11;11.05;;;10.13;;
6197;SDS011;3132;42.622;23.328;2022-08-21T16:14:44;10.50;;;9.77;;
6197;SDS011;3132;42.622;23.328;2022-08-21T16:17:10;11.13;;;10.07;;
6197;SDS011;3132;42.622;23.328;2022-08-21T16:19:35;11.82;;;10.82;;